Аэропорт: Ровно. Ровно

ICAO: UKLR

METAR:
2018/11/19 10:00
UKLR 191000Z 09007MPS CAVOK M00/M08 Q1023 NOSIG
METAR:
2018/11/09 06:33
TAF 
      AMD TAF 
      AMD UKLR 090628Z 0906/0918 14003MPS 5000 BR BKN010 TX10/0913Z TN00/0906Z 
      TEMPO 0906/0909 1000 BR BKN003 
      TEMPO 0909/0918 16006MPS